Time;durP1;ratioP1;P1;durP2;ratioP2;P2;SDS_P1;SDS_P2;PMS_P1;PMS_P2;Temp;Humidity;BMP_temperature;BMP_pressure;BME280_temperature;BME280_humidity;BME280_pressure;Samples;Min_cycle;Max_cycle;Signal;HPM_P1;HPM_P2
2021/05/22 00:02:26;;;;;;;3.90;2.50;;;;;;;8.84;76.29;98421.98;1686240;83;20990;-64
2021/05/22 00:04:52;;;;;;;3.50;2.00;;;;;;;8.86;76.30;98413.16;1716141;82;21539;-64
2021/05/22 00:07:19;;;;;;;3.07;2.07;;;;;;;8.88;76.30;98418.28;1720371;82;21050;-63
2021/05/22 00:09:46;;;;;;;2.90;1.70;;;;;;;8.89;76.29;98423.84;1716781;82;21183;-64
2021/05/22 00:12:13;;;;;;;2.42;1.72;;;;;;;8.87;76.35;98419.19;1714841;82;20944;-64
2021/05/22 00:14:40;;;;;;;;;;;;;;;8.89;76.40;98414.73;1716983;82;20985;-64
2021/05/22 00:17:07;;;;;;;3.83;1.87;;;;;;;8.88;76.50;98411.30;1716360;82;20175;-64
2021/05/22 00:19:34;;;;;;;3.45;1.98;;;;;;;8.87;76.45;98412.69;1721636;82;21211;-64
2021/05/22 00:22:00;;;;;;;4.47;1.80;;;;;;;8.84;76.39;98414.17;1711130;82;21578;-64
2021/05/22 00:24:27;;;;;;;2.90;1.72;;;;;;;8.84;76.52;98406.36;1716746;82;21578;-64
2021/05/22 00:26:53;;;;;;;4.30;1.72;;;;;;;8.81;76.46;98407.86;1712070;82;20949;-64
2021/05/22 00:29:20;;;;;;;2.87;2.03;;;;;;;8.81;76.56;98409.16;1714000;82;20980;-64
2021/05/22 00:31:47;;;;;;;6.83;1.87;;;;;;;8.81;76.52;98411.76;1720650;82;21083;-64
2021/05/22 00:34:14;;;;;;;3.10;1.65;;;;;;;8.79;76.57;98408.41;1717548;82;20956;-64
2021/05/22 00:36:40;;;;;;;3.30;1.90;;;;;;;8.77;76.52;98410.29;1720065;82;20921;-63
2021/05/22 00:39:08;;;;;;;3.33;1.83;;;;;;;8.73;76.58;98398.73;1719435;82;20961;-63
2021/05/22 00:41:34;;;;;;;4.03;1.85;;;;;;;8.72;76.65;98397.55;1715259;82;20976;-63
2021/05/22 00:44:01;;;;;;;3.87;1.90;;;;;;;8.59;76.74;98379.22;1716038;82;21078;-63
2021/05/22 00:46:28;;;;;;;2.60;1.93;;;;;;;8.59;76.74;98379.22;1717757;82;20959;-64
2021/05/22 00:48:54;;;;;;;4.10;2.87;;;;;;;8.69;76.79;98405.07;1715326;82;20988;-64
2021/05/22 00:51:21;;;;;;;4.20;2.47;;;;;;;8.68;76.75;98404.71;1722700;82;21020;-64
2021/05/22 00:53:47;;;;;;;3.27;2.27;;;;;;;8.65;76.79;98404.86;1712492;82;21007;-64
2021/05/22 00:56:15;;;;;;;5.25;2.83;;;;;;;8.64;76.80;98404.98;1720210;82;21011;-64
2021/05/22 00:58:43;;;;;;;2.55;1.85;;;;;;;8.63;76.88;98401.55;1712607;82;20946;-64
2021/05/22 01:01:10;;;;;;;3.60;1.92;;;;;;;8.62;76.84;98407.66;1713978;82;20970;-64
2021/05/22 01:03:44;;;;;;;2.97;1.83;;;;;;;8.56;76.75;98396.80;1712212;82;20933;-64
2021/05/22 01:06:19;;;;;;;3.22;2.12;;;;;;;8.48;76.76;98392.04;1705849;83;21674;-64
2021/05/22 01:09:10;;;;;;;4.42;2.37;;;;;;;8.41;76.87;98395.95;1705738;83;21831;-64
2021/05/22 01:11:56;;;;;;;5.37;1.72;;;;;;;8.39;76.96;98397.33;1708505;83;20972;-64
2021/05/22 01:14:31;;;;;;;4.30;1.87;;;;;;;8.29;76.92;98390.99;1699608;83;21615;-64
2021/05/22 01:16:59;;;;;;;8.70;2.12;;;;;;;8.24;77.08;98389.95;1705045;83;20934;-64
2021/05/22 01:19:57;;;;;;;2.55;1.60;;;;;;;8.20;77.05;98398.84;1706164;83;21487;-63
2021/05/22 01:22:28;;;;;;;3.17;1.87;;;;;;;8.14;77.09;98401.80;1709334;83;21107;-64
2021/05/22 01:25:25;;;;;;;5.53;2.08;;;;;;;8.10;77.18;98402.92;1711056;83;21061;-64
2021/05/22 01:27:53;;;;;;;5.47;2.40;;;;;;;8.05;77.12;98408.37;1710196;83;21071;-64
2021/05/22 01:30:20;;;;;;;6.15;2.00;;;;;;;7.96;77.17;98408.09;1705076;83;20992;-64
2021/05/22 01:32:47;;;;;;;2.95;2.00;;;;;;;7.88;77.13;98411.59;1706562;83;20950;-64
2021/05/22 01:35:15;;;;;;;3.45;1.77;;;;;;;7.78;77.15;98418.58;1708476;83;20959;-64
2021/05/22 01:37:42;;;;;;;6.55;1.92;;;;;;;7.70;77.22;98422.11;1707470;83;20921;-64
2021/05/22 01:40:11;;;;;;;5.13;2.30;;;;;;;7.62;77.34;98421.23;1707203;83;20980;-63
2021/05/22 01:42:37;;;;;;;3.22;1.70;;;;;;;7.58;77.46;98421.47;1707262;83;20940;-64
2021/05/22 01:45:12;;;;;;;5.55;2.55;;;;;;;7.55;77.59;98424.24;1710486;83;20973;-63
2021/05/22 01:47:42;;;;;;;4.20;2.02;;;;;;;7.54;77.60;98423.87;1706673;83;21027;-63
2021/05/22 01:50:12;;;;;;;2.33;1.82;;;;;;;7.56;77.68;98418.11;1708000;83;21000;-64
2021/05/22 01:52:42;;;;;;;3.37;2.08;;;;;;;7.55;77.63;98424.24;1711359;83;20983;-64
2021/05/22 01:55:11;;;;;;;2.62;1.90;;;;;;;7.53;77.68;98428.67;1710204;83;20975;-63
2021/05/22 01:57:40;;;;;;;4.58;2.17;;;;;;;7.51;77.74;98431.84;1706404;83;20936;-63
2021/05/22 02:00:09;;;;;;;3.58;2.12;;;;;;;7.51;77.71;98438.34;1688836;83;21041;-64
2021/05/22 02:02:36;;;;;;;3.10;1.90;;;;;;;7.52;77.79;98438.70;1706392;83;20977;-63
2021/05/22 02:05:05;;;;;;;3.33;1.80;;;;;;;7.48;77.66;98451.46;1712805;82;20945;-63
2021/05/22 02:07:36;;;;;;;3.17;1.80;;;;;;;7.43;77.74;98456.09;1714883;82;21036;-63
2021/05/22 02:10:06;;;;;;;4.62;2.35;;;;;;;7.37;77.78;98458.10;1722835;82;20964;-63
2021/05/22 02:12:34;;;;;;;4.22;2.50;;;;;;;7.32;77.83;98461.40;1719903;82;21007;-63
2021/05/22 02:15:03;;;;;;;3.65;2.17;;;;;;;7.30;77.87;98458.51;1713330;82;20936;-63
2021/05/22 02:17:31;;;;;;;2.65;1.90;;;;;;;7.32;78.00;98457.97;1716380;82;21073;-64
2021/05/22 02:19:58;;;;;;;6.45;2.40;;;;;;;7.34;78.00;98457.44;1715433;82;21082;-63
2021/05/22 02:22:25;;;;;;;4.08;2.65;;;;;;;7.31;77.99;98453.25;1716070;82;20961;-64
2021/05/22 02:24:53;;;;;;;8.15;2.50;;;;;;;7.28;78.05;98444.77;1716916;82;21002;-63
2021/05/22 02:27:20;;;;;;;;;;;;;;;7.22;77.88;98436.84;1715867;82;20924;-63
2021/05/22 02:29:48;;;;;;;4.30;2.27;;;;;;;7.19;78.17;98438.31;1716409;82;20161;-63
2021/05/22 02:32:18;;;;;;;2.70;2.27;;;;;;;7.15;78.15;98426.44;1715429;82;21463;-63
2021/05/22 02:34:56;;;;;;;6.42;1.90;;;;;;;7.14;78.21;98427.33;1717425;82;21565;-63
2021/05/22 02:37:28;;;;;;;3.55;2.40;;;;;;;7.12;78.16;98424.00;1721140;82;21009;-63
2021/05/22 02:39:58;;;;;;;4.53;2.40;;;;;;;7.09;78.15;98421.58;1722861;82;21454;-63
2021/05/22 02:42:27;;;;;;;3.95;2.62;;;;;;;7.07;78.19;98413.02;1718865;82;21543;-63
2021/05/22 02:44:56;;;;;;;4.70;2.47;;;;;;;7.07;78.20;98413.02;1715479;82;20993;-63
2021/05/22 02:47:25;;;;;;;3.55;2.60;;;;;;;7.01;78.10;98414.66;1718719;82;21498;-64
2021/05/22 02:49:57;;;;;;;2.65;2.15;;;;;;;6.99;78.21;98417.78;1715775;82;21018;-63
2021/05/22 02:52:27;;;;;;;3.72;2.15;;;;;;;6.94;78.18;98414.13;1719177;82;20921;-64
2021/05/22 02:54:54;;;;;;;2.72;2.12;;;;;;;6.92;78.22;98412.93;1720027;82;21543;-63
2021/05/22 02:57:23;;;;;;;3.98;1.92;;;;;;;6.90;78.27;98414.76;1715833;82;20917;-64
2021/05/22 02:59:50;;;;;;;3.75;2.40;;;;;;;6.95;78.41;98419.25;1717336;82;20964;-63
2021/05/22 03:02:17;;;;;;;2.95;2.27;;;;;;;7.38;78.90;98428.60;1719310;82;20988;-64
2021/05/22 03:04:47;;;;;;;2.62;2.05;;;;;;;8.11;78.91;98425.39;1688593;83;20973;-64
2021/05/22 03:07:14;;;;;;;6.20;2.00;;;;;;;8.94;78.68;98420.50;1683621;83;20965;-64
2021/05/22 03:09:40;;;;;;;3.25;1.95;;;;;;;9.85;77.95;98433.86;1705436;83;21527;-64
2021/05/22 03:12:08;;;;;;;2.00;1.55;;;;;;;10.66;77.74;98435.48;1710271;83;21055;-64
2021/05/22 03:14:35;;;;;;;4.20;2.55;;;;;;;11.46;77.06;98434.70;1707551;83;21084;-64
2021/05/22 03:17:02;;;;;;;3.90;2.57;;;;;;;12.14;76.33;98430.65;1708863;83;21577;-64
2021/05/22 03:19:28;;;;;;;7.00;2.50;;;;;;;12.79;75.89;98430.54;1709581;83;20945;-64
2021/05/22 03:21:55;;;;;;;4.10;2.43;;;;;;;13.32;75.29;98429.97;1709217;83;21028;-64
2021/05/22 03:24:21;;;;;;;3.40;1.80;;;;;;;14.01;75.19;98427.88;1706429;83;20923;-64
2021/05/22 03:26:48;;;;;;;2.72;1.87;;;;;;;14.68;74.92;98428.51;1710180;83;21004;-64
2021/05/22 03:29:14;;;;;;;2.90;1.90;;;;;;;15.21;73.98;98414.69;1707527;83;21496;-62
2021/05/22 03:31:41;;;;;;;3.25;1.70;;;;;;;15.56;73.19;98420.45;1686006;83;20914;-63
2021/05/22 03:34:08;;;;;;;3.02;1.80;;;;;;;16.03;73.70;98412.77;1706569;83;20913;-62
2021/05/22 03:36:34;;;;;;;3.52;1.90;;;;;;;16.70;73.63;98421.05;1709309;83;21575;-63
2021/05/22 03:39:01;;;;;;;1.92;1.60;;;;;;;17.39;72.70;98426.89;1701092;83;21006;-63
2021/05/22 03:41:28;;;;;;;3.95;1.95;;;;;;;17.82;71.78;98426.25;1711794;83;20937;-63
2021/05/22 03:43:55;;;;;;;4.95;2.50;;;;;;;18.10;71.18;98424.36;1709072;83;20968;-63
2021/05/22 03:46:21;;;;;;;6.08;3.40;;;;;;;18.68;72.08;98423.45;1707503;83;20953;-63
2021/05/22 03:48:48;;;;;;;6.45;3.45;;;;;;;19.17;71.08;98425.91;1709057;83;20925;-63
2021/05/22 03:51:14;;;;;;;5.60;3.22;;;;;;;19.47;69.94;98430.84;1693370;83;21256;-63
2021/05/22 03:53:41;;;;;;;6.28;3.25;;;;;;;19.82;70.21;98435.08;1689382;83;20931;-63
2021/05/22 03:56:08;;;;;;;5.42;3.00;;;;;;;20.24;70.11;98427.00;1690543;82;26492;-63
2021/05/22 03:58:34;;;;;;;7.00;2.70;;;;;;;21.34;69.29;98422.48;1696623;84;20969;-63
2021/05/22 04:01:01;;;;;;;3.33;1.92;;;;;;;21.34;69.29;98422.48;1681579;83;20951;-63
2021/05/22 04:03:28;;;;;;;3.40;1.60;;;;;;;21.84;68.87;98424.72;1714465;82;21085;-64
2021/05/22 04:05:54;;;;;;;2.77;1.22;;;;;;;22.24;67.83;98431.31;1695320;84;20951;-63
2021/05/22 04:08:21;;;;;;;1.98;1.07;;;;;;;22.43;67.51;98444.09;1686494;84;20953;-63
2021/05/22 04:10:48;;;;;;;3.65;1.30;;;;;;;22.76;66.83;98439.80;1682602;84;20969;-64
2021/05/22 04:13:15;;;;;;;1.47;1.20;;;;;;;23.01;66.18;98435.91;1684872;83;20977;-63
2021/05/22 04:15:41;;;;;;;3.22;1.47;;;;;;;23.32;65.96;98432.22;1707399;83;20982;-64
2021/05/22 04:18:13;;;;;;;;;;;;;;;23.60;65.49;98440.86;1681528;84;20923;-64
2021/05/22 04:20:36;;;;;;;4.70;1.37;;;;;;;23.92;64.62;98438.77;1674571;84;20550;-64
2021/05/22 04:23:04;;;;;;;4.25;1.25;;;;;;;24.28;64.71;98442.23;1674684;84;20960;-63
2021/05/22 04:25:30;;;;;;;3.37;1.00;;;;;;;24.41;63.76;98438.02;1679178;83;20984;-64
2021/05/22 04:27:57;;;;;;;3.92;1.02;;;;;;;24.45;62.75;98438.81;1685428;84;21064;-64
2021/05/22 04:30:24;;;;;;;1.70;0.90;;;;;;;24.38;62.30;98435.73;1684110;84;20960;-64
2021/05/22 04:32:51;;;;;;;1.45;0.88;;;;;;;24.48;62.32;98436.27;1686145;83;20929;-63
2021/05/22 04:35:17;;;;;;;1.20;0.88;;;;;;;24.62;61.58;98438.02;1684408;83;20905;-64
2021/05/22 04:37:45;;;;;;;5.00;1.00;;;;;;;24.82;60.66;98438.67;1684767;84;21828;-64
2021/05/22 04:40:13;;;;;;;4.35;1.20;;;;;;;25.02;60.26;98430.27;1685390;84;20962;-64
2021/05/22 04:42:39;;;;;;;2.25;1.05;;;;;;;25.00;59.80;98430.97;1685552;84;21014;-64
2021/05/22 04:45:07;;;;;;;2.92;1.05;;;;;;;24.95;59.17;98437.41;1700004;83;20923;-64
2021/05/22 04:47:35;;;;;;;1.95;0.78;;;;;;;25.03;59.17;98427.91;1681686;82;20961;-64
2021/05/22 04:50:04;;;;;;;1.70;0.82;;;;;;;25.30;58.95;98440.11;1685691;84;20933;-64
2021/05/22 04:52:31;;;;;;;2.92;0.82;;;;;;;25.48;57.99;98435.03;1691807;84;21032;-64
2021/05/22 04:54:57;;;;;;;2.20;1.10;;;;;;;25.40;57.32;98442.73;1686775;83;20921;-64
2021/05/22 04:57:24;;;;;;;2.33;0.70;;;;;;;25.51;57.31;98441.83;1686322;83;21527;-64
2021/05/22 04:59:51;;;;;;;2.20;1.10;;;;;;;25.64;56.49;98448.05;1688327;84;20985;-63
2021/05/22 05:02:17;;;;;;;3.70;1.00;;;;;;;25.47;55.56;98456.11;1692665;83;20909;-64
2021/05/22 05:04:44;;;;;;;3.10;1.05;;;;;;;25.31;55.43;98460.45;1686053;82;20968;-64
2021/05/22 05:07:11;;;;;;;3.52;0.90;;;;;;;25.42;55.14;98469.23;1697828;83;21017;-64
2021/05/22 05:09:38;;;;;;;4.37;1.12;;;;;;;25.36;54.90;98474.04;1692208;83;20940;-64
2021/05/22 05:12:07;;;;;;;3.05;1.20;;;;;;;25.45;54.37;98468.31;1662470;85;20939;-63
2021/05/22 05:14:34;;;;;;;1.57;1.17;;;;;;;25.39;54.46;98465.62;1649368;85;20997;-64
2021/05/22 05:17:01;;;;;;;2.05;1.00;;;;;;;25.65;53.62;98457.73;1683191;83;21280;-64
2021/05/22 05:19:30;;;;;;;4.12;1.25;;;;;;;25.37;52.76;98460.98;1691307;83;21630;-64
2021/05/22 05:21:58;;;;;;;1.98;0.93;;;;;;;25.18;52.83;98471.38;1695109;83;20913;-64
2021/05/22 05:24:25;;;;;;;3.35;1.05;;;;;;;25.04;52.33;98470.96;1691716;83;20925;-64
2021/05/22 05:26:51;;;;;;;1.57;0.93;;;;;;;25.22;52.33;98468.63;1695636;83;21012;-64
2021/05/22 05:29:19;;;;;;;1.75;0.90;;;;;;;25.38;51.29;98468.81;1693715;83;21433;-64
2021/05/22 05:31:46;;;;;;;3.40;0.88;;;;;;;25.39;51.61;98468.30;1697253;83;20953;-64
2021/05/22 05:34:15;;;;;;;1.70;1.00;;;;;;;25.49;51.28;98472.78;1659289;85;20961;-64
2021/05/22 05:36:42;;;;;;;3.83;1.20;;;;;;;25.74;51.69;98466.89;1649350;85;20946;-64
2021/05/22 05:39:10;;;;;;;3.70;1.07;;;;;;;26.24;51.01;98463.44;1690172;83;20978;-64
2021/05/22 05:41:37;;;;;;;2.62;0.98;;;;;;;26.21;49.69;98463.85;1691890;83;21077;-64
2021/05/22 05:44:05;;;;;;;4.05;0.90;;;;;;;25.60;49.38;98473.55;1660029;85;20948;-65
2021/05/22 05:46:32;;;;;;;2.45;1.15;;;;;;;25.27;49.39;98468.55;1651434;85;20985;-64
2021/05/22 05:49:03;;;;;;;2.62;1.00;;;;;;;24.83;48.73;98471.02;1634245;86;21495;-64
2021/05/22 05:51:29;;;;;;;1.75;1.00;;;;;;;24.14;48.80;98469.77;1647568;85;21585;-63
2021/05/22 05:53:55;;;;;;;2.12;1.37;;;;;;;23.31;48.30;98473.70;1627593;86;21017;-64
2021/05/22 05:56:22;;;;;;;4.92;1.00;;;;;;;22.48;48.49;98476.30;1653490;85;21051;-64
2021/05/22 05:58:49;;;;;;;2.35;1.12;;;;;;;21.76;48.67;98469.97;1685627;83;20906;-64
2021/05/22 06:01:15;;;;;;;;;;;;;;;21.22;48.69;98470.64;1692352;83;20941;-64
2021/05/22 06:03:43;;;;;;;;;;;;;;;20.87;48.88;98477.72;1694712;82;20146;-63
2021/05/22 06:06:09;;;;;;;3.95;1.35;;;;;;;20.67;48.93;98475.42;1726055;81;21176;-63
2021/05/22 06:08:36;;;;;;;;;;;;;;;20.25;48.94;98481.69;1678350;83;20970;-63
2021/05/22 06:11:03;;;;;;;9.63;1.40;;;;;;;19.70;48.77;98480.91;1675709;83;20134;-63
2021/05/22 06:13:34;;;;;;;2.95;1.50;;;;;;;19.12;49.09;98483.75;1674062;83;20938;-64
2021/05/22 06:18:33;;;;;;;4.00;1.20;;;;;;;18.25;49.50;98484.59;1684782;84;21066;-63
2021/05/22 06:21:02;;;;;;;3.80;1.42;;;;;;;18.00;49.75;98476.42;1685309;84;20944;-63
2021/05/22 06:23:30;;;;;;;3.33;1.35;;;;;;;18.02;50.16;98471.83;1681811;84;20901;-64
2021/05/22 06:25:58;;;;;;;2.15;1.00;;;;;;;18.70;50.68;98463.30;1681748;84;21029;-64
2021/05/22 06:28:26;;;;;;;1.85;0.82;;;;;;;18.92;49.62;98455.88;1684743;84;22280;-64
2021/05/22 06:30:55;;;;;;;4.17;1.35;;;;;;;18.64;49.41;98455.99;1688701;84;21070;-63
2021/05/22 06:33:22;;;;;;;2.65;1.00;;;;;;;18.38;50.00;98448.05;1676097;83;20937;-63
2021/05/22 06:35:48;;;;;;;;;;;;;;;18.25;50.07;98447.59;1673583;84;20996;-64
2021/05/22 06:38:15;;;;;;;2.12;1.02;;;;;;;18.07;50.42;98451.58;1682634;84;20159;-64
2021/05/22 06:40:43;;;;;;;4.45;1.20;;;;;;;17.89;50.31;98451.55;1688434;83;21451;-64
2021/05/22 06:43:09;;;;;;;1.70;1.00;;;;;;;17.74;50.47;98460.95;1683155;84;21017;-63
2021/05/22 06:45:44;;;;;;;7.25;1.30;;;;;;;17.63;50.71;98453.56;1681720;84;20958;-64
2021/05/22 06:48:13;;;;;;;4.42;1.85;;;;;;;17.56;50.97;98464.39;1689347;84;21622;-64
2021/05/22 06:50:41;;;;;;;3.83;1.30;;;;;;;17.53;51.22;98458.09;1684003;84;21586;-64
2021/05/22 06:53:08;;;;;;;3.17;1.32;;;;;;;17.45;51.32;98464.59;1699708;83;20976;-64
2021/05/22 06:58:06;;;;;;;3.15;1.30;;;;;;;17.22;51.47;98472.89;1654430;84;20180;-63
2021/05/22 07:00:33;;;;;;;5.92;1.55;;;;;;;17.14;51.82;98481.16;1678190;84;20969;-64
2021/05/22 07:02:59;;;;;;;3.62;1.42;;;;;;;17.12;51.82;98479.99;1688362;84;21513;-64
2021/05/22 07:05:26;;;;;;;7.30;1.65;;;;;;;17.09;52.09;98487.38;1710687;83;21597;-63
2021/05/22 07:07:55;;;;;;;5.10;1.82;;;;;;;17.10;52.19;98493.80;1701838;83;21124;-63
2021/05/22 07:10:22;;;;;;;4.60;1.95;;;;;;;17.14;52.28;98499.16;1705104;83;20985;-64
2021/05/22 07:12:48;;;;;;;3.72;1.65;;;;;;;17.12;52.19;98499.77;1711200;83;20929;-64
2021/05/22 07:15:15;;;;;;;5.55;1.98;;;;;;;17.12;52.37;98491.03;1704935;83;20992;-63
2021/05/22 07:17:41;;;;;;;2.17;1.52;;;;;;;17.31;52.65;98487.47;1692679;83;21535;-63
2021/05/22 07:20:09;;;;;;;2.65;1.37;;;;;;;17.49;52.23;98479.14;1708603;83;22457;-64
2021/05/22 07:22:36;;;;;;;5.90;1.77;;;;;;;17.49;52.23;98479.14;1734711;82;20941;-64
2021/05/22 07:25:03;;;;;;;6.87;2.45;;;;;;;17.57;52.75;98475.28;1733324;81;20916;-64
2021/05/22 07:27:35;;;;;;;6.05;1.90;;;;;;;17.60;52.61;98474.16;1734278;82;20952;-64
2021/05/22 07:29:58;;;;;;;4.90;2.25;;;;;;;17.60;52.55;98478.94;1738527;82;20956;-64
2021/05/22 07:32:25;;;;;;;4.30;1.92;;;;;;;17.84;53.15;98477.57;1744704;82;20987;-64
2021/05/22 07:34:52;;;;;;;3.00;1.60;;;;;;;18.15;52.87;98471.93;1745785;81;20904;-64
2021/05/22 07:37:18;;;;;;;8.25;2.37;;;;;;;18.25;52.42;98471.38;1730683;82;20940;-64
2021/05/22 07:39:45;;;;;;;3.47;1.67;;;;;;;18.30;52.61;98471.75;1734745;82;20901;-63
2021/05/22 07:42:12;;;;;;;4.25;1.70;;;;;;;18.47;52.81;98470.91;1725552;82;20901;-64
2021/05/22 07:44:38;;;;;;;;;;;;;;;18.75;52.94;98464.20;1725166;82;21625;-64
2021/05/22 07:47:05;;;;;;;7.22;2.55;;;;;;;18.75;52.17;98461.06;1727246;82;20574;-63
2021/05/22 07:49:37;;;;;;;6.78;2.12;;;;;;;18.84;52.59;98457.97;1723853;82;20845;-63
2021/05/22 07:52:10;;;;;;;5.55;1.80;;;;;;;18.97;52.54;98449.13;1728373;82;20937;-64
2021/05/22 07:54:40;;;;;;;3.50;1.45;;;;;;;19.14;52.88;98459.80;1731169;82;20947;-64
2021/05/22 07:57:09;;;;;;;7.15;1.40;;;;;;;19.27;52.62;98454.91;1729489;82;22111;-64
2021/05/22 07:59:37;;;;;;;12.63;2.55;;;;;;;19.29;52.27;98459.53;1714155;82;20988;-64
2021/05/22 08:02:04;;;;;;;5.85;1.47;;;;;;;19.35;52.45;98453.63;1731303;81;20918;-64
2021/05/22 08:04:32;;;;;;;3.35;1.40;;;;;;;19.37;52.33;98450.30;1733389;82;20873;-64
2021/05/22 08:06:59;;;;;;;5.45;1.42;;;;;;;19.39;51.90;98456.27;1737960;81;20952;-64
2021/05/22 08:09:26;;;;;;;3.35;1.50;;;;;;;19.34;52.23;98458.56;1740459;81;21014;-64
2021/05/22 08:11:53;;;;;;;4.15;1.30;;;;;;;19.47;52.15;98454.66;1680409;83;21535;-64
2021/05/22 08:14:20;;;;;;;9.45;2.08;;;;;;;19.59;52.23;98458.66;1681739;83;20914;-64
2021/05/22 08:16:47;;;;;;;8.33;1.40;;;;;;;19.75;52.22;98456.09;1686121;82;20942;-64
2021/05/22 08:19:14;;;;;;;5.78;1.90;;;;;;;19.77;51.36;98463.86;1743592;80;20980;-64
2021/05/22 08:21:42;;;;;;;3.40;1.27;;;;;;;19.53;51.55;98460.63;1679711;83;21719;-65
2021/05/22 08:24:10;;;;;;;5.80;1.75;;;;;;;19.80;52.19;98461.74;1685949;82;21514;-65
2021/05/22 08:26:39;;;;;;;4.10;1.98;;;;;;;19.94;51.81;98457.63;1683404;83;21037;-65
2021/05/22 08:29:05;;;;;;;6.65;3.85;;;;;;;20.03;51.11;98446.55;1675272;84;21685;-65
2021/05/22 08:31:33;;;;;;;34.10;20.62;;;;;;;20.08;51.52;98445.53;1679495;84;23836;-64
2021/05/22 08:34:00;;;;;;;16.07;11.08;;;;;;;20.13;51.16;98441.41;1681962;84;20993;-64
2021/05/22 08:36:28;;;;;;;4.42;2.45;;;;;;;20.13;50.76;98437.93;1678445;84;20961;-64
2021/05/22 08:38:55;;;;;;;6.72;3.37;;;;;;;20.10;50.59;98435.61;1679013;82;20886;-64
2021/05/22 08:41:22;;;;;;;6.20;1.75;;;;;;;19.93;50.42;98435.27;1681228;84;20959;-64
2021/05/22 08:43:48;;;;;;;4.67;1.92;;;;;;;19.90;50.39;98433.27;1684808;84;20978;-64
2021/05/22 08:46:20;;;;;;;7.08;2.08;;;;;;;19.92;50.51;98427.00;1683429;84;21068;-65
2021/05/22 08:48:48;;;;;;;5.25;1.60;;;;;;;20.04;50.60;98427.83;1681242;84;20932;-64
2021/05/22 08:51:19;;;;;;;8.10;1.45;;;;;;;20.26;50.30;98429.50;1679938;83;21308;-65
2021/05/22 08:53:45;;;;;;;14.98;3.50;;;;;;;20.40;50.39;98425.36;1680523;83;20924;-64
2021/05/22 08:56:12;;;;;;;6.90;1.70;;;;;;;20.61;49.95;98420.38;1699867;82;20940;-64
2021/05/22 08:58:39;;;;;;;5.40;1.80;;;;;;;20.74;50.04;98418.03;1690543;83;21664;-64
2021/05/22 09:01:06;;;;;;;;;;;;;;;20.97;50.13;98414.66;1681490;82;20929;-64
2021/05/22 09:03:32;;;;;;;6.35;1.35;;;;;;;21.06;49.26;98416.31;1683103;83;28360;-64
2021/05/22 09:05:59;;;;;;;3.87;1.47;;;;;;;20.75;49.11;98409.10;1682762;83;21634;-65
2021/05/22 09:08:26;;;;;;;7.22;2.60;;;;;;;20.62;49.50;98419.40;1680807;84;23272;-64
2021/05/22 09:10:54;;;;;;;66.05;19.77;;;;;;;20.68;49.38;98417.89;1667833;84;21767;-65
2021/05/22 09:13:26;;;;;;;37.38;11.83;;;;;;;20.76;49.28;98417.38;1683915;84;20968;-65
2021/05/22 09:16:06;;;;;;;9.23;2.17;;;;;;;20.83;49.10;98411.39;1684683;84;21578;-65
2021/05/22 09:18:41;;;;;;;7.12;2.00;;;;;;;20.75;49.03;98412.23;1677130;84;20985;-65
2021/05/22 09:21:11;;;;;;;9.00;2.05;;;;;;;20.83;48.96;98412.72;1677944;83;21040;-65
2021/05/22 09:23:41;;;;;;;6.25;1.52;;;;;;;21.06;49.31;98413.66;1690007;84;20992;-65
2021/05/22 09:26:12;;;;;;;3.80;1.17;;;;;;;21.31;48.97;98407.72;1663072;84;20968;-64
2021/05/22 09:28:46;;;;;;;58.92;17.98;;;;;;;21.33;48.68;98406.23;1692331;84;21024;-64
2021/05/22 09:31:20;;;;;;;36.60;5.95;;;;;;;21.38;48.79;98405.25;1687762;84;21918;-65
2021/05/22 09:33:47;;;;;;;12.65;2.08;;;;;;;21.37;48.45;98403.58;1686884;84;21590;-65
2021/05/22 09:36:14;;;;;;;;;;;;;;;21.26;48.02;98398.63;1685432;84;21580;-65
2021/05/22 09:38:53;;;;;;;8.85;2.02;;;;;;;21.08;47.18;98394.89;1685250;84;20550;-64
2021/05/22 09:41:24;;;;;;;2.92;1.10;;;;;;;20.89;48.09;98401.42;1683030;84;20951;-64
2021/05/22 09:44:15;;;;;;;19.70;7.30;;;;;;;20.81;47.29;98396.13;1682896;84;20977;-64
2021/05/22 09:46:50;;;;;;;13.45;3.65;;;;;;;20.66;47.68;98394.69;1686114;84;21446;-63
2021/05/22 09:49:29;;;;;;;4.08;1.45;;;;;;;20.65;47.85;98395.19;1683429;84;21022;-63
2021/05/22 09:52:08;;;;;;;8.55;2.10;;;;;;;20.75;47.67;98390.53;1690180;84;20933;-64
2021/05/22 09:54:53;;;;;;;8.28;1.90;;;;;;;20.91;47.67;98388.82;1682286;84;20965;-63
2021/05/22 09:57:39;;;;;;;5.50;1.70;;;;;;;20.94;47.05;98388.47;1687001;83;20947;-64
2021/05/22 10:00:14;;;;;;;3.70;1.15;;;;;;;20.92;46.96;98389.14;1676861;84;20974;-64
2021/05/22 10:02:53;;;;;;;6.53;1.35;;;;;;;20.78;46.98;98386.69;1683116;83;21618;-64
2021/05/22 10:05:31;;;;;;;2.67;1.35;;;;;;;20.59;46.59;98382.61;1677952;84;20949;-64
2021/05/22 10:07:59;;;;;;;4.92;1.10;;;;;;;20.45;46.91;98380.63;1710404;82;20960;-64
2021/05/22 10:10:48;;;;;;;6.67;1.30;;;;;;;20.53;47.06;98383.30;1713790;82;20976;-63
2021/05/22 10:13:18;;;;;;;13.13;1.87;;;;;;;20.73;46.74;98379.27;1716270;82;20905;-64
2021/05/22 10:15:47;;;;;;;7.20;1.50;;;;;;;20.96;46.98;98370.56;1716955;82;20973;-63
2021/05/22 10:18:16;;;;;;;3.62;1.27;;;;;;;21.10;46.50;98365.04;1714117;82;21646;-64
2021/05/22 10:20:43;;;;;;;5.22;1.15;;;;;;;21.08;46.51;98363.88;1712118;82;21586;-64
2021/05/22 10:23:10;;;;;;;7.25;1.07;;;;;;;21.00;46.41;98355.94;1749519;81;20913;-63
2021/05/22 10:25:37;;;;;;;5.42;1.70;;;;;;;21.14;46.69;98357.86;1745331;80;20935;-64
2021/05/22 10:28:05;;;;;;;2.75;1.52;;;;;;;21.20;46.18;98354.55;1738105;81;20999;-64
2021/05/22 10:30:32;;;;;;;12.75;2.02;;;;;;;21.07;46.19;98352.94;1740922;81;20959;-64
2021/05/22 10:33:06;;;;;;;5.05;2.20;;;;;;;21.42;46.90;98348.95;1690236;84;20960;-64
2021/05/22 10:35:54;;;;;;;6.20;1.92;;;;;;;21.82;46.58;98342.24;1743804;81;20988;-64
2021/05/22 10:38:41;;;;;;;6.70;1.30;;;;;;;22.05;46.45;98339.56;1747395;80;20905;-64
2021/05/22 10:41:14;;;;;;;8.78;1.40;;;;;;;21.98;45.30;98330.13;1747201;81;20995;-64
2021/05/22 10:43:56;;;;;;;4.37;1.27;;;;;;;21.49;45.20;98321.22;1742513;81;21427;-63
2021/05/22 10:46:18;;;;;;;5.00;1.25;;;;;;;21.14;45.04;98326.02;1681988;83;20901;-66
2021/05/22 10:48:59;;;;;;;44.25;4.08;;;;;;;20.92;44.82;98313.52;1681534;84;21104;-65
2021/05/22 10:51:37;;;;;;;8.20;2.10;;;;;;;20.75;45.33;98310.97;1697504;82;20965;-65
2021/05/22 10:54:13;;;;;;;4.75;1.32;;;;;;;20.79;45.41;98313.59;1701976;82;21006;-65
2021/05/22 10:57:07;;;;;;;3.17;1.30;;;;;;;21.07;45.85;98303.84;1747606;80;20925;-67
2021/05/22 10:59:35;;;;;;;4.42;1.42;;;;;;;21.08;45.17;98302.83;1740673;80;20965;-65
2021/05/22 11:02:01;;;;;;;7.03;1.60;;;;;;;21.09;45.11;98293.89;1746443;80;20948;-65
2021/05/22 11:04:30;;;;;;;5.62;1.60;;;;;;;20.75;44.84;98296.38;1744330;80;20966;-65
2021/05/22 11:07:01;;;;;;;16.23;2.02;;;;;;;20.31;44.46;98289.36;1743233;81;20996;-65
2021/05/22 11:09:36;;;;;;;10.60;1.65;;;;;;;20.23;45.38;98294.17;1741680;81;20963;-65
2021/05/22 11:12:12;;;;;;;3.98;1.27;;;;;;;20.41;45.22;98291.80;1739540;81;21522;-67
2021/05/22 11:14:43;;;;;;;2.75;1.50;;;;;;;20.44;45.17;98291.46;1740958;80;20896;-64
2021/05/22 11:17:29;;;;;;;4.92;1.52;;;;;;;20.31;44.84;98292.83;1740847;81;21485;-65
2021/05/22 11:20:10;;;;;;;5.10;1.50;;;;;;;20.19;45.06;98283.56;1737723;80;21024;-64
2021/05/22 11:22:53;;;;;;;8.58;1.92;;;;;;;20.30;45.00;98291.16;1738125;80;21922;-64
2021/05/22 11:25:18;;;;;;;30.62;3.22;;;;;;;20.66;45.45;98282.80;1735558;81;21067;-65
2021/05/22 11:27:50;;;;;;;;;;;;;;;21.05;45.36;98276.65;1740913;80;20928;-64
2021/05/22 11:30:34;;;;;;;4.95;1.82;;;;;;;21.13;45.34;98281.91;1711114;81;20146;-64
2021/05/22 11:33:09;;;;;;;15.90;2.42;;;;;;;21.01;44.91;98280.67;1728157;81;21324;-65
2021/05/22 11:35:52;;;;;;;7.95;1.75;;;;;;;20.86;44.74;98277.08;1728822;81;20959;-64
2021/05/22 11:38:25;;;;;;;4.55;1.65;;;;;;;20.73;44.98;98275.82;1734163;81;20940;-64
2021/05/22 11:40:55;;;;;;;4.80;1.42;;;;;;;20.93;45.25;98272.75;1738365;81;20917;-64
2021/05/22 11:43:29;;;;;;;11.75;1.98;;;;;;;21.08;45.01;98270.99;1742811;81;20983;-64
2021/05/22 11:46:06;;;;;;;7.10;1.90;;;;;;;21.11;44.99;98264.00;1734778;81;20995;-64
2021/05/22 11:48:47;;;;;;;5.70;1.65;;;;;;;20.88;44.92;98265.30;1687719;84;20930;-64
2021/05/22 11:51:26;;;;;;;6.47;2.58;;;;;;;20.52;44.78;98259.62;1698191;83;20953;-64
2021/05/22 11:54:09;;;;;;;8.03;2.55;;;;;;;20.19;45.30;98257.06;1692162;83;20980;-64